Dagmar Theresa — 9HA2338 — position and weather

sailwx.info

Track history (hours):
 
Tides and Currents Weather Stations Pressure Air Temp Water Temp Dewpoint Dewpoint Depression Visibility Wind Speed Wind Dir Waves Ship Positions

Dagmar Theresa

Last reported at 2017-Nov-17 22:57 UTC. Time now 2017-Nov-18 04:30 UTC.
Position N 52°02' E 003°20'.

Length 92 m; draft 5.9 m.

Type: Tanker. MMSI: 248370000.

Date/timePositionNaut miles runAvg speedWind from/ knotsBaromVisibWave heightAir tempDewpointWater temp
2017-Nov-17 22:57N 52°02' E 003°20'711.6
2017-Nov-17 22:20N 52°09' E 003°22'203 9.3
2017-Nov-17 00:28N 54°00' E 008°05'5 9.5
2017-Nov-16 23:58N 54°00' E 008°13'611.6
2017-Nov-16 23:27N 53°59' E 008°23'511.1
2017-Nov-16 23:00N 53°58' E 008°31'5 9.9
2017-Nov-16 22:30N 53°57' E 008°39'4 8.9
2017-Nov-16 22:00N 53°53' E 008°43'4 8.1
2017-Nov-16 21:30N 53°51' E 008°49'4 8.1
2017-Nov-16 21:01N 53°51' E 008°56'4 7.7
2017-Nov-16 20:30N 53°52' E 009°02'4 8.4
2017-Nov-16 20:01N 53°54' E 009°09'0 0.2
2017-Nov-16 19:30N 53°54' E 009°09'0 0.9
2017-Nov-16 19:00N 53°54' E 009°09'1 1.1
2017-Nov-16 18:30N 53°54' E 009°10'2 3.8
2017-Nov-16 18:01N 53°56' E 009°12'4 8.0
2017-Nov-16 17:30N 53°59' E 009°16'4 8.3
2017-Nov-16 17:00N 54°03' E 009°18'5 8.2
2017-Nov-16 16:26N 54°07' E 009°20'3 7.9
2017-Nov-16 16:00N 54°10' E 009°24'4 8.2
2017-Nov-16 15:30N 54°11' E 009°30'4 8.1
2017-Nov-16 15:01N 54°14' E 009°36'2 4.5
2017-Nov-16 14:31N 54°16' E 009°37'3 6.3
2017-Nov-16 14:00N 54°18' E 009°42'4 7.9
2017-Nov-16 13:31N 54°21' E 009°46'28 4.0
2017-Nov-16 06:29N 54°33' E 010°29'4 9.3
2017-Nov-16 06:00N 54°35' E 010°36'5 9.6
2017-Nov-16 05:30N 54°35' E 010°45'5 9.9
2017-Nov-16 05:00N 54°36' E 010°53'5 9.7
2017-Nov-16 04:30N 54°36' E 011°01'510.0
2017-Nov-16 04:00N 54°37' E 011°10'510.1
2017-Nov-16 03:30N 54°34' E 011°18'5 9.5
2017-Nov-16 03:00N 54°32' E 011°25'5 9.0
2017-Nov-16 02:30N 54°30' E 011°32'5 9.7
2017-Nov-16 02:00N 54°28' E 011°40'6 9.9
2017-Nov-16 01:25N 54°26' E 011°49'4 9.9
2017-Nov-16 01:00N 54°26' E 011°56'5 9.7
2017-Nov-16 00:30N 54°26' E 012°04'21 8.9
2017-Nov-15 22:09N 54°42' E 012°29'47 9.7
2017-Nov-15 17:16N 55°00' E 013°44'8 9.9
2017-Nov-15 16:28N 55°03' E 013°57'11 9.4
2017-Nov-15 15:20N 55°09' E 014°12'5 9.6
2017-Nov-15 14:51N 55°13' E 014°17'4 9.6
2017-Nov-15 14:27N 55°16' E 014°21'4 9.7
2017-Nov-15 14:00N 55°19' E 014°26'510.0
2017-Nov-15 13:30N 55°23' E 014°31'5 9.8
2017-Nov-15 13:00N 55°27' E 014°37'7 9.9
2017-Nov-15 12:20N 55°30' E 014°48'3 9.8
2017-Nov-15 12:00N 55°31' E 014°53'8 9.7
2017-Nov-15 11:09N 55°35' E 015°06'1 9.9
2017-Nov-15 11:00N 55°36' E 015°08'5 9.9
2017-Nov-15 10:30N 55°37' E 015°16'5 9.8
2017-Nov-15 10:00N 55°40' E 015°24'5 9.7
2017-Nov-15 09:30N 55°41' E 015°32'5 9.8
2017-Nov-15 09:00N 55°42' E 015°41'5 9.8
2017-Nov-15 08:30N 55°43' E 015°49'5 9.8
2017-Nov-15 08:00N 55°44' E 015°58'510.0
2017-Nov-15 07:30N 55°46' E 016°06'5 9.9
2017-Nov-15 07:00N 55°47' E 016°15'5 9.8
2017-Nov-15 06:30N 55°48' E 016°23'510.0
2017-Nov-15 06:00N 55°49' E 016°32'510.1
2017-Nov-15 05:30N 55°50' E 016°41'  
2017-Nov-12 16:18N 55°42' E 015°48'310.2
2017-Nov-12 15:59N 55°43' E 015°43'710.3
2017-Nov-12 15:19N 55°43' E 015°30'310.4
2017-Nov-12 15:00N 55°44' E 015°25'710.8
2017-Nov-12 14:24N 55°49' E 015°19'410.9
2017-Nov-12 14:00N 55°53' E 015°14'21 0.7
2017-Nov-11 05:52N 56°10' E 014°52'0 0.2
2017-Nov-11 05:28N 56°10' E 014°52'0 0.0
2017-Nov-11 04:58N 56°10' E 014°52'0 0.0
2017-Nov-11 04:28N 56°10' E 014°52'0 0.0
2017-Nov-11 03:19N 56°10' E 014°52'0 0.0
2017-Nov-11 02:31N 56°10' E 014°52'0 0.0
2017-Nov-11 02:25N 56°10' E 014°52'0 0.0
2017-Nov-11 01:01N 56°10' E 014°52'0 0.0
2017-Nov-11 00:49N 56°10' E 014°52'0 0.0
2017-Nov-11 00:28N 56°10' E 014°52'0 0.0
2017-Nov-10 23:19N 56°10' E 014°52'0 0.0
2017-Nov-10 22:31N 56°10' E 014°52'0 0.0
2017-Nov-10 22:28N 56°10' E 014°52'0 0.0
2017-Nov-10 20:10N 56°10' E 014°52'0 0.0
2017-Nov-10 19:58N 56°10' E 014°52'0 0.0
2017-Nov-10 19:28N 56°10' E 014°52'0 0.8
2017-Nov-10 18:58N 56°09' E 014°52'4 8.3
2017-Nov-10 18:30N 56°06' E 014°54'510.3
2017-Nov-10 18:01N 56°01' E 014°56'611.0
2017-Nov-10 17:30N 55°55' E 014°54'511.3
2017-Nov-10 17:00N 55°50' E 014°52'1011.5
2017-Nov-10 16:07N 55°40' E 014°48'311.3
2017-Nov-10 15:53N 55°37' E 014°46'511.4
2017-Nov-10 15:25N 55°32' E 014°43'511.6
2017-Nov-10 14:59N 55°28' E 014°40'511.4
2017-Nov-10 14:30N 55°23' E 014°36'611.1
2017-Nov-10 13:57N 55°17' E 014°31'511.0
2017-Nov-10 13:30N 55°14' E 014°25'611.3
2017-Nov-10 13:00N 55°09' E 014°19'711.4
2017-Nov-10 12:21N 55°04' E 014°10'411.8
2017-Nov-10 12:00N 55°01' E 014°05'5611.1
2017-Nov-10 06:56N 54°41' E 012°34'1010.5
2017-Nov-10 06:01N 54°36' E 012°20'010.6
2017-Nov-10 06:00N 54°36' E 012°20'510.5
2017-Nov-10 05:30N 54°31' E 012°16'9 9.4
2017-Nov-10 04:32N 54°24' E 012°06'010.2
2017-Nov-10 04:30N 54°24' E 012°06'510.4
2017-Nov-10 04:01N 54°24' E 011°57'1610.4
2017-Nov-10 02:31N 54°29' E 011°31'010.9
2017-Nov-10 02:29N 54°29' E 011°31'811.1
2017-Nov-10 01:43N 54°33' E 011°18'310.9
2017-Nov-10 01:30N 54°34' E 011°14'510.9
2017-Nov-10 01:00N 54°35' E 011°05'611.3
2017-Nov-10 00:30N 54°35' E 010°55'611.0
2017-Nov-10 00:01N 54°34' E 010°46'610.9
2017-Nov-09 23:28N 54°33' E 010°36'29 6.5
2017-Nov-09 19:03N 54°22' E 009°50'1 8.2
2017-Nov-09 18:53N 54°22' E 009°48'3 8.4
2017-Nov-09 18:30N 54°20' E 009°44'4 7.4
2017-Nov-09 18:01N 54°17' E 009°39'4 8.1
2017-Nov-09 17:30N 54°14' E 009°36'3 6.1
2017-Nov-09 17:00N 54°12' E 009°32'4 8.5
2017-Nov-09 16:30N 54°10' E 009°26'4 8.1
2017-Nov-09 16:00N 54°08' E 009°20'4 8.3
2017-Nov-09 15:29N 54°03' E 009°19'4 8.4
2017-Nov-09 15:00N 53°59' E 009°17'4 8.2
2017-Nov-09 14:30N 53°56' E 009°13'4 7.2
2017-Nov-09 14:00N 53°54' E 009°09'0 0.0
2017-Nov-09 13:31N 53°54' E 009°09'2 3.3
2017-Nov-09 13:00N 53°53' E 009°06'4 8.0
2017-Nov-09 12:30N 53°51' E 009°00'611.4
2017-Nov-09 12:00N 53°50' E 008°51'510.0
2017-Nov-09 11:30N 53°52' E 008°43'510.0
2017-Nov-09 11:00N 53°57' E 008°38'5 9.6
2017-Nov-09 10:31N 53°58' E 008°31'5 9.4
2017-Nov-09 09:57N 53°59' E 008°22'4 9.8
2017-Nov-09 09:30N 53°60' E 008°15'5 9.9
2017-Nov-09 09:00N 53°59' E 008°06'194 6.8
2017-Nov-08 04:37N 52°05' E 003°46'2 9.2
2017-Nov-08 04:27N 52°05' E 003°49'4 8.4
2017-Nov-08 04:00N 52°03' E 003°54'5 9.1
2017-Nov-08 03:30N 52°00' E 004°01'5 9.7
2017-Nov-08 03:00N 51°58' E 004°08'5 9.8
2017-Nov-08 02:30N 51°55' E 004°14'4 8.9
2017-Nov-08 02:00N 51°54' E 004°21'1 0.9
2017-Nov-08 01:25N 51°54' E 004°22'0 0.0
2017-Nov-08 00:52N 51°54' E 004°22'0 0.0
2017-Nov-08 00:28N 51°54' E 004°22'0 0.0
2017-Nov-07 23:55N 51°54' E 004°22'0 0.0
2017-Nov-07 23:28N 51°54' E 004°22'  
Track history (hours):
 
Tides and Currents Weather Stations Pressure Air Temp Water Temp Dewpoint Dewpoint Depression Visibility Wind Speed Wind Dir Waves Ship Positions

Dagmar Theresa

Last reported at 2017-Nov-17 22:57 UTC. Time now 2017-Nov-18 04:31 UTC.
Position N 52°02' E 003°20'.

Length 92 m; draft 5.9 m.

Type: Tanker. MMSI: 248370000.

Date/timePositionNaut miles runAvg speedWind from/ knotsBaromVisibWave heightAir tempDewpointWater temp
2017-Nov-17 22:57N 52°02' E 003°20'711.6
2017-Nov-17 22:20N 52°09' E 003°22'203 9.3
2017-Nov-17 00:28N 54°00' E 008°05'5 9.5
2017-Nov-16 23:58N 54°00' E 008°13'611.6
2017-Nov-16 23:27N 53°59' E 008°23'511.1
2017-Nov-16 23:00N 53°58' E 008°31'5 9.9
2017-Nov-16 22:30N 53°57' E 008°39'4 8.9
2017-Nov-16 22:00N 53°53' E 008°43'4 8.1
2017-Nov-16 21:30N 53°51' E 008°49'4 8.1
2017-Nov-16 21:01N 53°51' E 008°56'4 7.7
2017-Nov-16 20:30N 53°52' E 009°02'4 8.4
2017-Nov-16 20:01N 53°54' E 009°09'0 0.2
2017-Nov-16 19:30N 53°54' E 009°09'0 0.9
2017-Nov-16 19:00N 53°54' E 009°09'1 1.1
2017-Nov-16 18:30N 53°54' E 009°10'2 3.8
2017-Nov-16 18:01N 53°56' E 009°12'4 8.0
2017-Nov-16 17:30N 53°59' E 009°16'4 8.3
2017-Nov-16 17:00N 54°03' E 009°18'5 8.2
2017-Nov-16 16:26N 54°07' E 009°20'3 7.9
2017-Nov-16 16:00N 54°10' E 009°24'4 8.2
2017-Nov-16 15:30N 54°11' E 009°30'4 8.1
2017-Nov-16 15:01N 54°14' E 009°36'2 4.5
2017-Nov-16 14:31N 54°16' E 009°37'3 6.3
2017-Nov-16 14:00N 54°18' E 009°42'4 7.9
2017-Nov-16 13:31N 54°21' E 009°46'28 4.0
2017-Nov-16 06:29N 54°33' E 010°29'4 9.3
2017-Nov-16 06:00N 54°35' E 010°36'5 9.6
2017-Nov-16 05:30N 54°35' E 010°45'5 9.9
2017-Nov-16 05:00N 54°36' E 010°53'5 9.7
2017-Nov-16 04:30N 54°36' E 011°01'510.0
2017-Nov-16 04:00N 54°37' E 011°10'510.1
2017-Nov-16 03:30N 54°34' E 011°18'5 9.5
2017-Nov-16 03:00N 54°32' E 011°25'5 9.0
2017-Nov-16 02:30N 54°30' E 011°32'5 9.7
2017-Nov-16 02:00N 54°28' E 011°40'6 9.9
2017-Nov-16 01:25N 54°26' E 011°49'4 9.9
2017-Nov-16 01:00N 54°26' E 011°56'5 9.7
2017-Nov-16 00:30N 54°26' E 012°04'21 8.9
2017-Nov-15 22:09N 54°42' E 012°29'47 9.7
2017-Nov-15 17:16N 55°00' E 013°44'8 9.9
2017-Nov-15 16:28N 55°03' E 013°57'11 9.4
2017-Nov-15 15:20N 55°09' E 014°12'5 9.6
2017-Nov-15 14:51N 55°13' E 014°17'4 9.6
2017-Nov-15 14:27N 55°16' E 014°21'4 9.7
2017-Nov-15 14:00N 55°19' E 014°26'510.0
2017-Nov-15 13:30N 55°23' E 014°31'5 9.8
2017-Nov-15 13:00N 55°27' E 014°37'7 9.9
2017-Nov-15 12:20N 55°30' E 014°48'3 9.8
2017-Nov-15 12:00N 55°31' E 014°53'8 9.7
2017-Nov-15 11:09N 55°35' E 015°06'1 9.9
2017-Nov-15 11:00N 55°36' E 015°08'5 9.9
2017-Nov-15 10:30N 55°37' E 015°16'5 9.8
2017-Nov-15 10:00N 55°40' E 015°24'5 9.7
2017-Nov-15 09:30N 55°41' E 015°32'5 9.8
2017-Nov-15 09:00N 55°42' E 015°41'5 9.8
2017-Nov-15 08:30N 55°43' E 015°49'5 9.8
2017-Nov-15 08:00N 55°44' E 015°58'510.0
2017-Nov-15 07:30N 55°46' E 016°06'5 9.9
2017-Nov-15 07:00N 55°47' E 016°15'5 9.8
2017-Nov-15 06:30N 55°48' E 016°23'510.0
2017-Nov-15 06:00N 55°49' E 016°32'510.1
2017-Nov-15 05:30N 55°50' E 016°41'  
2017-Nov-12 16:18N 55°42' E 015°48'310.2
2017-Nov-12 15:59N 55°43' E 015°43'710.3
2017-Nov-12 15:19N 55°43' E 015°30'310.4
2017-Nov-12 15:00N 55°44' E 015°25'710.8
2017-Nov-12 14:24N 55°49' E 015°19'410.9
2017-Nov-12 14:00N 55°53' E 015°14'21 0.7
2017-Nov-11 05:52N 56°10' E 014°52'0 0.2
2017-Nov-11 05:28N 56°10' E 014°52'0 0.0
2017-Nov-11 04:58N 56°10' E 014°52'0 0.0
2017-Nov-11 04:28N 56°10' E 014°52'0 0.0
2017-Nov-11 03:19N 56°10' E 014°52'0 0.0
2017-Nov-11 02:31N 56°10' E 014°52'0 0.0
2017-Nov-11 02:25N 56°10' E 014°52'0 0.0
2017-Nov-11 01:01N 56°10' E 014°52'0 0.0
2017-Nov-11 00:49N 56°10' E 014°52'0 0.0
2017-Nov-11 00:28N 56°10' E 014°52'0 0.0
2017-Nov-10 23:19N 56°10' E 014°52'0 0.0
2017-Nov-10 22:31N 56°10' E 014°52'0 0.0
2017-Nov-10 22:28N 56°10' E 014°52'0 0.0
2017-Nov-10 20:10N 56°10' E 014°52'0 0.0
2017-Nov-10 19:58N 56°10' E 014°52'0 0.0
2017-Nov-10 19:28N 56°10' E 014°52'0 0.8
2017-Nov-10 18:58N 56°09' E 014°52'4 8.3
2017-Nov-10 18:30N 56°06' E 014°54'510.3
2017-Nov-10 18:01N 56°01' E 014°56'611.0
2017-Nov-10 17:30N 55°55' E 014°54'511.3
2017-Nov-10 17:00N 55°50' E 014°52'1011.5
2017-Nov-10 16:07N 55°40' E 014°48'311.3
2017-Nov-10 15:53N 55°37' E 014°46'511.4
2017-Nov-10 15:25N 55°32' E 014°43'511.6
2017-Nov-10 14:59N 55°28' E 014°40'511.4
2017-Nov-10 14:30N 55°23' E 014°36'611.1
2017-Nov-10 13:57N 55°17' E 014°31'511.0
2017-Nov-10 13:30N 55°14' E 014°25'611.3
2017-Nov-10 13:00N 55°09' E 014°19'711.4
2017-Nov-10 12:21N 55°04' E 014°10'411.8
2017-Nov-10 12:00N 55°01' E 014°05'5611.1
2017-Nov-10 06:56N 54°41' E 012°34'1010.5
2017-Nov-10 06:01N 54°36' E 012°20'010.6
2017-Nov-10 06:00N 54°36' E 012°20'510.5
2017-Nov-10 05:30N 54°31' E 012°16'9 9.4
2017-Nov-10 04:32N 54°24' E 012°06'010.2
2017-Nov-10 04:30N 54°24' E 012°06'510.4
2017-Nov-10 04:01N 54°24' E 011°57'1610.4
2017-Nov-10 02:31N 54°29' E 011°31'010.9
2017-Nov-10 02:29N 54°29' E 011°31'811.1
2017-Nov-10 01:43N 54°33' E 011°18'310.9
2017-Nov-10 01:30N 54°34' E 011°14'510.9
2017-Nov-10 01:00N 54°35' E 011°05'611.3
2017-Nov-10 00:30N 54°35' E 010°55'611.0
2017-Nov-10 00:01N 54°34' E 010°46'610.9
2017-Nov-09 23:28N 54°33' E 010°36'29 6.5
2017-Nov-09 19:03N 54°22' E 009°50'1 8.2
2017-Nov-09 18:53N 54°22' E 009°48'3 8.4
2017-Nov-09 18:30N 54°20' E 009°44'4 7.4
2017-Nov-09 18:01N 54°17' E 009°39'4 8.1
2017-Nov-09 17:30N 54°14' E 009°36'3 6.1
2017-Nov-09 17:00N 54°12' E 009°32'4 8.5
2017-Nov-09 16:30N 54°10' E 009°26'4 8.1
2017-Nov-09 16:00N 54°08' E 009°20'4 8.3
2017-Nov-09 15:29N 54°03' E 009°19'4 8.4
2017-Nov-09 15:00N 53°59' E 009°17'4 8.2
2017-Nov-09 14:30N 53°56' E 009°13'4 7.2
2017-Nov-09 14:00N 53°54' E 009°09'0 0.0
2017-Nov-09 13:31N 53°54' E 009°09'2 3.3
2017-Nov-09 13:00N 53°53' E 009°06'4 8.0
2017-Nov-09 12:30N 53°51' E 009°00'611.4
2017-Nov-09 12:00N 53°50' E 008°51'510.0
2017-Nov-09 11:30N 53°52' E 008°43'510.0
2017-Nov-09 11:00N 53°57' E 008°38'5 9.6
2017-Nov-09 10:31N 53°58' E 008°31'5 9.4
2017-Nov-09 09:57N 53°59' E 008°22'4 9.8
2017-Nov-09 09:30N 53°60' E 008°15'5 9.9
2017-Nov-09 09:00N 53°59' E 008°06'194 6.8
2017-Nov-08 04:37N 52°05' E 003°46'2 9.2
2017-Nov-08 04:27N 52°05' E 003°49'4 8.4
2017-Nov-08 04:00N 52°03' E 003°54'5 9.1
2017-Nov-08 03:30N 52°00' E 004°01'5 9.7
2017-Nov-08 03:00N 51°58' E 004°08'5 9.8
2017-Nov-08 02:30N 51°55' E 004°14'4 8.9
2017-Nov-08 02:00N 51°54' E 004°21'1 0.9
2017-Nov-08 01:25N 51°54' E 004°22'0 0.0
2017-Nov-08 00:52N 51°54' E 004°22'0 0.0
2017-Nov-08 00:28N 51°54' E 004°22'0 0.0
2017-Nov-07 23:55N 51°54' E 004°22'0 0.0
2017-Nov-07 23:28N 51°54' E 004°22'  

Dump ship's entire track history